createdAt,value
2018-02-13T00:00:22.725Z,60.42
2018-02-13T00:02:55.244Z,60.02
2018-02-13T00:05:27.740Z,59.81
2018-02-13T00:08:00.270Z,59.65
2018-02-13T00:10:32.790Z,59.66
2018-02-13T00:13:05.302Z,59.63
2018-02-13T00:15:37.871Z,59.69
2018-02-13T00:18:10.375Z,59.63
2018-02-13T00:20:42.901Z,59.51
2018-02-13T00:23:16.336Z,59.57
2018-02-13T00:25:48.932Z,59.59
2018-02-13T00:28:21.429Z,59.49
2018-02-13T00:30:53.953Z,59.27
2018-02-13T00:33:26.455Z,59.33
2018-02-13T00:35:58.973Z,59.41
2018-02-13T00:38:31.471Z,59.63
2018-02-13T00:41:03.996Z,59.52
2018-02-13T00:43:36.551Z,59.09
2018-02-13T00:46:09.075Z,59.11
2018-02-13T00:48:41.583Z,58.95
2018-02-13T00:51:14.098Z,59.00
2018-02-13T00:53:46.604Z,58.97
2018-02-13T00:56:19.119Z,59.00
2018-02-13T00:58:51.618Z,58.98
2018-02-13T01:01:24.132Z,58.86
2018-02-13T01:03:57.265Z,58.78
2018-02-13T01:06:29.787Z,58.81
2018-02-13T01:09:02.299Z,58.71
2018-02-13T01:11:34.821Z,58.71
2018-02-13T01:14:07.332Z,58.71
2018-02-13T01:16:39.857Z,58.59
2018-02-13T01:19:12.352Z,58.55
2018-02-13T01:21:44.892Z,58.75
2018-02-13T01:24:17.388Z,58.76
2018-02-13T01:26:49.914Z,58.89
2018-02-13T01:29:22.414Z,58.88
2018-02-13T01:31:54.937Z,58.73
2018-02-13T01:34:27.446Z,58.24
2018-02-13T01:36:59.976Z,58.89
2018-02-13T01:39:32.476Z,58.89
2018-02-13T01:42:05.022Z,58.75
2018-02-13T01:44:37.523Z,58.75
2018-02-13T01:47:10.049Z,59.01
2018-02-13T01:49:42.555Z,58.95
2018-02-13T01:52:15.093Z,58.88
2018-02-13T01:54:48.429Z,58.87
2018-02-13T01:57:20.947Z,58.72
2018-02-13T01:59:53.441Z,58.62
2018-02-13T02:02:25.961Z,58.78
2018-02-13T02:04:58.491Z,58.80
2018-02-13T02:07:30.998Z,58.86
2018-02-13T02:10:03.503Z,58.99
2018-02-13T02:12:36.025Z,58.88
2018-02-13T02:15:08.706Z,58.92
2018-02-13T02:17:41.271Z,58.83
2018-02-13T02:20:13.796Z,58.77
2018-02-13T02:22:46.311Z,58.83
2018-02-13T02:25:18.830Z,58.86
2018-02-13T02:27:51.348Z,58.85
2018-02-13T02:30:23.842Z,58.85
2018-02-13T02:32:56.995Z,58.79
2018-02-13T02:35:29.556Z,58.87
2018-02-13T02:38:02.116Z,58.83
2018-02-13T02:40:34.620Z,58.87
2018-02-13T02:43:07.313Z,58.87
2018-02-13T02:45:39.807Z,58.92
2018-02-13T02:48:12.332Z,58.88
2018-02-13T02:50:44.830Z,58.90
2018-02-13T02:53:17.355Z,58.84
2018-02-13T02:55:49.861Z,59.03
2018-02-13T02:58:22.457Z,59.03
2018-02-13T03:00:54.953Z,58.99
2018-02-13T03:03:27.483Z,58.97
2018-02-13T03:05:59.982Z,58.90
2018-02-13T03:08:32.512Z,58.88
2018-02-13T03:11:05.034Z,58.85
2018-02-13T03:13:37.587Z,58.93
2018-02-13T03:16:10.113Z,58.96
2018-02-13T03:18:42.631Z,58.86
2018-02-13T03:21:15.131Z,59.03
2018-02-13T03:23:47.643Z,58.90
2018-02-13T03:26:20.157Z,58.99
2018-02-13T03:28:52.681Z,59.03
2018-02-13T03:31:26.321Z,58.98
2018-02-13T03:33:59.446Z,58.96
2018-02-13T03:36:31.946Z,58.98
2018-02-13T03:39:04.472Z,59.03
2018-02-13T03:41:36.978Z,59.03
2018-02-13T03:44:09.518Z,58.96
2018-02-13T03:46:42.032Z,59.01
2018-02-13T03:49:14.567Z,59.00
2018-02-13T03:51:47.139Z,59.00
2018-02-13T03:54:19.631Z,59.08
2018-02-13T03:56:52.144Z,59.12
2018-02-13T03:59:24.644Z,59.01
2018-02-13T04:01:57.171Z,59.05
2018-02-13T04:04:29.673Z,58.94
2018-02-13T04:07:02.245Z,59.02
2018-02-13T04:09:34.734Z,59.03
2018-02-13T04:12:07.260Z,59.24
2018-02-13T04:14:39.765Z,59.21
2018-02-13T04:17:12.310Z,59.12
2018-02-13T04:19:44.802Z,59.09
2018-02-13T04:22:17.342Z,59.10
2018-02-13T04:24:49.855Z,59.28
2018-02-13T04:27:22.388Z,59.30
2018-02-13T04:29:54.899Z,59.30
2018-02-13T04:32:27.413Z,59.32
2018-02-13T04:34:59.914Z,59.12
2018-02-13T04:37:32.441Z,59.05
2018-02-13T04:40:04.950Z,59.15
2018-02-13T04:42:37.477Z,59.17
2018-02-13T04:45:09.984Z,59.54
2018-02-13T04:47:42.509Z,59.47
2018-02-13T04:50:15.015Z,59.67
2018-02-13T04:52:47.547Z,59.54
2018-02-13T04:55:20.047Z,59.91
2018-02-13T04:57:52.569Z,59.76
2018-02-13T05:00:25.069Z,59.59
2018-02-13T05:02:57.591Z,59.59
2018-02-13T05:05:30.081Z,59.52
2018-02-13T05:08:02.604Z,59.55
2018-02-13T05:10:35.091Z,59.59
2018-02-13T05:13:07.611Z,59.95
2018-02-13T05:15:40.104Z,59.83
2018-02-13T05:18:12.632Z,60.22
2018-02-13T05:20:45.141Z,59.73
2018-02-13T05:23:17.644Z,59.63
2018-02-13T05:25:50.145Z,59.50
2018-02-13T05:28:22.676Z,59.60
2018-02-13T05:30:55.180Z,59.50
2018-02-13T05:33:27.691Z,59.82
2018-02-13T05:36:00.196Z,59.83
2018-02-13T05:38:32.709Z,60.02
2018-02-13T05:41:05.204Z,60.11
2018-02-13T05:43:37.743Z,60.72
2018-02-13T05:46:10.265Z,60.23
2018-02-13T05:48:42.772Z,60.02
2018-02-13T05:51:15.266Z,59.81
2018-02-13T05:53:47.785Z,59.94
2018-02-13T05:56:20.287Z,59.84
2018-02-13T05:58:52.810Z,59.82
2018-02-13T06:01:25.298Z,59.77
2018-02-13T06:03:57.815Z,59.71
2018-02-13T06:06:30.308Z,59.71
2018-02-13T06:09:02.837Z,59.66
2018-02-13T06:11:35.329Z,59.77
2018-02-13T06:14:07.844Z,59.73
2018-02-13T06:16:40.342Z,59.58
2018-02-13T06:19:12.863Z,59.59
2018-02-13T06:21:45.368Z,59.68
2018-02-13T06:24:17.904Z,59.74
2018-02-13T06:26:50.401Z,59.53
2018-02-13T06:29:22.927Z,59.65
2018-02-13T06:31:55.432Z,59.73
2018-02-13T06:34:28.007Z,59.55
2018-02-13T06:37:00.504Z,59.52
2018-02-13T06:39:33.020Z,59.49
2018-02-13T06:42:05.525Z,59.73
2018-02-13T06:44:38.311Z,59.78
2018-02-13T06:47:10.825Z,59.87
2018-02-13T06:49:43.348Z,59.67
2018-02-13T06:52:17.901Z,59.60
2018-02-13T06:54:50.415Z,59.50
2018-02-13T06:57:22.912Z,59.67
2018-02-13T06:59:55.427Z,59.63
2018-02-13T07:02:27.933Z,59.59
2018-02-13T07:05:00.450Z,59.58
2018-02-13T07:07:32.956Z,59.43
2018-02-13T07:10:05.471Z,59.26
2018-02-13T07:12:39.952Z,59.17
2018-02-13T07:15:12.467Z,59.31
2018-02-13T07:17:47.570Z,59.39
2018-02-13T07:20:20.096Z,59.34
2018-02-13T07:22:52.611Z,59.20
2018-02-13T07:25:25.184Z,59.50
2018-02-13T07:27:57.715Z,59.44
2018-02-13T07:30:31.247Z,59.45
2018-02-13T07:33:03.759Z,59.33
2018-02-13T07:35:36.273Z,59.26
2018-02-13T07:38:08.792Z,59.36
2018-02-13T07:40:41.294Z,59.31
2018-02-13T07:43:13.825Z,59.43
2018-02-13T07:45:46.334Z,59.20
2018-02-13T07:48:18.922Z,59.28
2018-02-13T07:50:51.433Z,59.38
2018-02-13T07:53:24.057Z,59.70
2018-02-13T07:55:56.557Z,59.85
2018-02-13T07:58:29.300Z,59.38
2018-02-13T08:01:01.818Z,59.22
2018-02-13T08:03:34.350Z,59.10
2018-02-13T08:06:06.970Z,59.52
2018-02-13T08:08:40.212Z,59.39
2018-02-13T08:11:12.790Z,59.07
2018-02-13T08:13:45.320Z,59.75
2018-02-13T08:16:18.209Z,59.55
2018-02-13T08:18:50.828Z,59.51
2018-02-13T08:21:25.518Z,59.55
2018-02-13T08:23:58.259Z,59.41
2018-02-13T08:26:30.773Z,59.16
2018-02-13T08:29:03.377Z,59.37
2018-02-13T08:31:35.894Z,59.12
2018-02-13T08:34:08.415Z,58.73
2018-02-13T08:36:40.919Z,58.57
2018-02-13T08:39:13.446Z,58.93
2018-02-13T08:41:45.973Z,59.35
2018-02-13T08:44:18.545Z,58.90
2018-02-13T08:46:51.097Z,59.16
2018-02-13T08:49:23.659Z,58.48
2018-02-13T08:51:56.567Z,58.97
2018-02-13T08:54:29.097Z,58.87
2018-02-13T08:57:01.652Z,58.10
2018-02-13T08:59:34.163Z,58.13
2018-02-13T09:02:06.663Z,57.52
2018-02-13T09:04:39.204Z,57.99
2018-02-13T09:07:11.753Z,57.49
2018-02-13T09:09:44.275Z,57.43
2018-02-13T09:12:16.776Z,57.15
2018-02-13T09:14:49.307Z,56.51
2018-02-13T09:17:21.807Z,56.84
2018-02-13T09:19:54.383Z,56.34
2018-02-13T09:22:26.878Z,54.86
2018-02-13T09:24:59.443Z,56.00
2018-02-13T09:27:31.968Z,54.11
2018-02-13T09:30:04.496Z,56.77
2018-02-13T09:32:37.000Z,56.72
2018-02-13T09:35:09.531Z,55.51
2018-02-13T09:37:42.055Z,56.54
2018-02-13T09:40:14.578Z,55.23
2018-02-13T09:42:47.090Z,56.18
2018-02-13T09:45:19.626Z,56.24
2018-02-13T09:47:52.129Z,56.24
2018-02-13T09:50:24.644Z,56.53
2018-02-13T09:52:57.137Z,56.32
2018-02-13T09:55:29.661Z,54.47
2018-02-13T09:58:02.162Z,55.71
2018-02-13T10:00:34.903Z,55.31
2018-02-13T10:03:07.620Z,56.12
2018-02-13T10:05:40.153Z,56.07
2018-02-13T10:08:12.644Z,55.97
2018-02-13T10:10:45.162Z,55.19
2018-02-13T10:13:17.670Z,55.33
2018-02-13T10:15:50.184Z,54.60
2018-02-13T10:18:22.699Z,53.74
2018-02-13T10:20:55.251Z,55.20
2018-02-13T10:23:27.758Z,54.79
2018-02-13T10:26:00.284Z,54.61
2018-02-13T10:28:32.795Z,53.47
2018-02-13T10:31:05.320Z,53.85
2018-02-13T10:33:37.844Z,54.36
2018-02-13T10:36:10.365Z,54.36
2018-02-13T10:38:42.863Z,54.23
2018-02-13T10:41:15.390Z,54.05
2018-02-13T10:43:47.874Z,51.92
2018-02-13T10:46:20.417Z,52.77
2018-02-13T10:48:52.925Z,53.33
2018-02-13T10:51:25.449Z,52.52
2018-02-13T10:53:57.944Z,52.50
2018-02-13T10:56:30.466Z,52.69
2018-02-13T10:59:02.988Z,50.76
2018-02-13T11:01:37.534Z,52.85
2018-02-13T11:04:10.063Z,53.18
2018-02-13T11:06:42.556Z,52.15
2018-02-13T11:09:15.075Z,52.17
2018-02-13T11:11:47.577Z,52.24
2018-02-13T11:14:20.086Z,52.46
2018-02-13T11:16:52.590Z,51.66
2018-02-13T11:19:25.123Z,51.45
2018-02-13T11:21:57.618Z,51.19
2018-02-13T11:24:30.134Z,49.03
2018-02-13T11:27:02.636Z,51.63
2018-02-13T11:29:35.171Z,48.54
2018-02-13T11:32:07.666Z,50.09
2018-02-13T11:34:40.185Z,48.85
2018-02-13T11:37:12.688Z,48.78
2018-02-13T11:39:45.207Z,47.21
2018-02-13T11:42:17.703Z,47.11
2018-02-13T11:44:50.272Z,45.13
2018-02-13T11:47:22.766Z,45.03
2018-02-13T11:49:55.284Z,45.11
2018-02-13T11:52:27.775Z,46.54
2018-02-13T11:55:00.287Z,46.86
2018-02-13T11:57:32.776Z,45.39
2018-02-13T12:00:05.294Z,45.04
2018-02-13T12:02:37.784Z,44.25
2018-02-13T12:05:10.300Z,42.25
2018-02-13T12:07:42.790Z,40.44
2018-02-13T12:10:15.301Z,42.16
2018-02-13T12:12:47.802Z,40.55
2018-02-13T12:15:20.330Z,38.53
2018-02-13T12:17:52.822Z,40.35
2018-02-13T12:20:25.339Z,41.74
2018-02-13T12:22:57.833Z,43.11
2018-02-13T12:25:42.204Z,42.33
2018-02-13T12:28:14.675Z,41.28
2018-02-13T12:30:47.213Z,44.06
2018-02-13T12:33:19.739Z,44.72
2018-02-13T12:35:52.251Z,44.72
2018-02-13T12:38:24.735Z,44.36
2018-02-13T12:40:57.250Z,45.16
2018-02-13T12:43:29.808Z,44.09
2018-02-13T12:46:02.305Z,45.15
2018-02-13T12:48:34.802Z,44.49
2018-02-13T12:51:07.327Z,44.21
2018-02-13T12:53:39.820Z,44.63
2018-02-13T12:56:12.333Z,45.54
2018-02-13T12:58:44.821Z,45.98
2018-02-13T13:01:17.327Z,43.89
2018-02-13T13:03:49.822Z,44.44
2018-02-13T13:06:22.332Z,44.58
2018-02-13T13:08:54.830Z,44.85
2018-02-13T13:11:27.341Z,44.97
2018-02-13T13:13:59.832Z,44.13
2018-02-13T13:16:32.353Z,43.21
2018-02-13T13:19:04.860Z,42.27
2018-02-13T13:21:37.372Z,43.75
2018-02-13T13:24:09.861Z,44.38
2018-02-13T13:26:42.363Z,44.26
2018-02-13T13:29:14.857Z,44.35
2018-02-13T13:31:47.373Z,43.80
2018-02-13T13:34:19.886Z,43.37
2018-02-13T13:36:52.391Z,44.44
2018-02-13T13:39:24.881Z,44.00
2018-02-13T13:41:57.413Z,42.97
2018-02-13T13:44:29.928Z,43.14
2018-02-13T13:47:02.451Z,42.28
2018-02-13T13:49:34.944Z,43.30
2018-02-13T13:52:07.464Z,42.92
2018-02-13T13:54:39.964Z,42.64
2018-02-13T13:57:12.486Z,41.24
2018-02-13T13:59:44.967Z,43.12
2018-02-13T14:02:17.468Z,42.90
2018-02-13T14:04:49.956Z,42.46
2018-02-13T14:07:22.519Z,42.92
2018-02-13T14:09:54.995Z,42.55
2018-02-13T14:12:27.521Z,42.66
2018-02-13T14:15:00.024Z,42.46
2018-02-13T14:17:34.296Z,42.84
2018-02-13T14:20:06.790Z,42.62
2018-02-13T14:22:40.494Z,39.92
2018-02-13T14:25:13.017Z,42.21
2018-02-13T14:27:45.514Z,42.94
2018-02-13T14:30:18.017Z,43.17
2018-02-13T14:32:50.504Z,42.57
2018-02-13T14:35:23.034Z,42.88
2018-02-13T14:37:55.516Z,42.63
2018-02-13T14:40:28.031Z,42.99
2018-02-13T14:43:00.518Z,42.99
2018-02-13T14:45:33.017Z,43.44
2018-02-13T14:48:05.615Z,43.51
2018-02-13T14:50:38.138Z,43.63
2018-02-13T14:53:10.623Z,43.80
2018-02-13T14:55:43.131Z,43.76
2018-02-13T14:58:16.062Z,43.69
2018-02-13T15:00:48.886Z,43.52
2018-02-13T15:03:21.394Z,44.15
2018-02-13T15:05:53.912Z,44.27
2018-02-13T15:08:26.411Z,44.26
2018-02-13T15:10:58.911Z,44.32
2018-02-13T15:13:31.401Z,44.32
2018-02-13T15:16:03.920Z,44.04
2018-02-13T15:18:36.471Z,44.31
2018-02-13T15:21:08.964Z,44.67
2018-02-13T15:23:41.455Z,44.84
2018-02-13T15:26:13.970Z,44.88
2018-02-13T15:28:46.502Z,44.61
2018-02-13T15:31:19.009Z,44.89
2018-02-13T15:33:51.494Z,44.63
2018-02-13T15:36:24.009Z,44.68
2018-02-13T15:38:56.523Z,44.85
2018-02-13T15:41:29.040Z,44.93
2018-02-13T15:44:01.536Z,45.36
2018-02-13T15:46:34.082Z,45.29
2018-02-13T15:49:06.577Z,45.56
2018-02-13T15:51:39.136Z,45.83
2018-02-13T15:54:11.682Z,46.01
2018-02-13T15:56:44.193Z,46.18
2018-02-13T15:59:16.705Z,46.15
2018-02-13T16:01:49.325Z,46.48
2018-02-13T16:04:21.817Z,46.59
2018-02-13T16:06:54.326Z,46.70
2018-02-13T16:09:26.885Z,46.66
2018-02-13T16:11:59.394Z,46.71
2018-02-13T16:14:31.885Z,47.00
2018-02-13T16:17:04.791Z,47.05
2018-02-13T16:19:37.366Z,47.10
2018-02-13T16:22:09.875Z,47.40
2018-02-13T16:24:42.636Z,47.62
2018-02-13T16:27:16.510Z,47.89
2018-02-13T16:29:49.372Z,48.09
2018-02-13T16:32:24.741Z,48.21
2018-02-13T16:34:57.249Z,48.53
2018-02-13T16:37:33.011Z,48.72
2018-02-13T16:40:06.080Z,48.92
2018-02-13T16:42:38.594Z,49.03
2018-02-13T16:45:14.652Z,49.24
2018-02-13T16:47:47.265Z,49.40
2018-02-13T16:50:19.850Z,49.72
2018-02-13T16:52:53.034Z,50.04
2018-02-13T16:55:27.783Z,50.11
2018-02-13T16:58:00.318Z,50.23
2018-02-13T17:00:37.691Z,50.30
2018-02-13T17:03:10.254Z,51.00
2018-02-13T17:05:42.791Z,50.73
2018-02-13T17:08:15.307Z,50.94
2018-02-13T17:10:47.816Z,50.88
2018-02-13T17:13:20.337Z,51.02
2018-02-13T17:15:52.857Z,51.02
2018-02-13T17:18:25.375Z,51.44
2018-02-13T17:20:57.866Z,51.51
2018-02-13T17:23:30.388Z,51.90
2018-02-13T17:26:02.878Z,52.06
2018-02-13T17:28:35.402Z,51.92
2018-02-13T17:31:07.902Z,52.21
2018-02-13T17:33:40.426Z,52.14
2018-02-13T17:36:12.917Z,52.56
2018-02-13T17:38:45.441Z,52.70
2018-02-13T17:41:17.975Z,52.71
2018-02-13T17:43:50.546Z,52.38
2018-02-13T17:46:23.096Z,52.65
2018-02-13T17:48:55.595Z,52.92
2018-02-13T17:51:28.135Z,53.10
2018-02-13T17:54:00.633Z,53.30
2018-02-13T17:59:11.949Z,53.41
2018-02-13T18:01:44.692Z,53.49
2018-02-13T18:04:17.200Z,53.50
2018-02-13T18:06:49.729Z,53.35
2018-02-13T18:09:22.237Z,53.41
2018-02-13T18:11:54.753Z,53.50
2018-02-13T18:14:27.301Z,53.49
2018-02-13T18:16:59.835Z,53.03
2018-02-13T18:19:32.335Z,53.20
2018-02-13T18:22:04.846Z,53.58
2018-02-13T18:24:37.348Z,53.73
2018-02-13T18:27:09.873Z,53.90
2018-02-13T18:29:42.364Z,54.20
2018-02-13T18:32:14.896Z,54.24
2018-02-13T18:34:47.410Z,54.29
2018-02-13T18:37:20.006Z,53.89
2018-02-13T18:39:52.506Z,53.94
2018-02-13T18:42:25.026Z,54.03
2018-02-13T18:44:57.525Z,54.24
2018-02-13T18:47:30.059Z,54.31
2018-02-13T18:50:02.572Z,54.23
2018-02-13T18:55:07.559Z,54.51
2018-02-13T18:57:40.080Z,54.28
2018-02-13T19:00:13.595Z,54.05
2018-02-13T19:02:46.109Z,54.32
2018-02-13T19:05:18.994Z,54.48
2018-02-13T19:07:57.858Z,54.07
2018-02-13T19:10:31.023Z,54.37
2018-02-13T19:13:03.602Z,54.35
2018-02-13T19:15:36.112Z,54.63
2018-02-13T19:18:08.712Z,54.96
2018-02-13T19:20:41.238Z,54.95
2018-02-13T19:23:13.794Z,55.09
2018-02-13T19:25:46.284Z,55.17
2018-02-13T19:28:18.811Z,55.02
2018-02-13T19:30:51.305Z,55.05
2018-02-13T19:33:23.832Z,55.13
2018-02-13T19:35:56.333Z,54.77
2018-02-13T19:38:28.849Z,54.92
2018-02-13T19:41:01.357Z,55.15
2018-02-13T19:43:33.867Z,54.91
2018-02-13T19:46:06.440Z,54.97
2018-02-13T19:48:38.964Z,54.82
2018-02-13T19:51:11.545Z,55.08
2018-02-13T19:53:44.073Z,55.25
2018-02-13T19:56:16.582Z,55.39
2018-02-13T19:58:49.105Z,55.50
2018-02-13T20:01:21.625Z,55.46
2018-02-13T20:03:54.151Z,55.25
2018-02-13T20:06:26.646Z,55.03
2018-02-13T20:08:59.166Z,55.35
2018-02-13T20:11:31.685Z,55.20
2018-02-13T20:14:04.212Z,55.32
2018-02-13T20:16:36.722Z,55.16
2018-02-13T20:19:09.869Z,55.22
2018-02-13T20:21:42.377Z,55.23
2018-02-13T20:24:15.947Z,55.19
2018-02-13T20:26:48.840Z,55.23
2018-02-13T20:29:21.353Z,55.33
2018-02-13T20:31:53.878Z,55.57
2018-02-13T20:34:28.356Z,55.66
2018-02-13T20:37:00.924Z,55.49
2018-02-13T20:39:33.724Z,55.39
2018-02-13T20:42:06.256Z,55.24
2018-02-13T20:44:38.778Z,55.01
2018-02-13T20:47:11.277Z,54.91
2018-02-13T20:49:43.796Z,55.43
2018-02-13T20:52:16.287Z,55.50
2018-02-13T20:54:51.282Z,55.60
2018-02-13T20:57:25.576Z,55.41
2018-02-13T21:00:01.451Z,55.50
2018-02-13T21:02:34.054Z,55.72
2018-02-13T21:05:06.608Z,55.96
2018-02-13T21:07:41.276Z,55.94
2018-02-13T21:10:22.275Z,55.84
2018-02-13T21:12:58.603Z,55.90
2018-02-13T21:15:31.230Z,55.80
2018-02-13T21:18:04.051Z,55.87
2018-02-13T21:20:36.549Z,55.78
2018-02-13T21:23:09.091Z,55.77
2018-02-13T21:25:41.593Z,55.56
2018-02-13T21:28:14.114Z,55.87
2018-02-13T21:30:46.613Z,55.72
2018-02-13T21:33:19.171Z,55.57
2018-02-13T21:35:51.695Z,55.47
2018-02-13T21:38:24.216Z,55.57
2018-02-13T21:40:56.722Z,55.98
2018-02-13T21:43:29.407Z,56.00
2018-02-13T21:46:01.906Z,56.12
2018-02-13T21:48:34.453Z,56.15
2018-02-13T21:51:06.986Z,55.84
2018-02-13T21:53:39.568Z,56.17
2018-02-13T21:56:12.059Z,56.12
2018-02-13T21:58:44.589Z,56.26
2018-02-13T22:01:17.162Z,56.12
2018-02-13T22:03:49.683Z,55.89
2018-02-13T22:06:22.175Z,55.95
2018-02-13T22:08:54.686Z,56.30
2018-02-13T22:11:27.248Z,56.34
2018-02-13T22:13:59.790Z,56.31
2018-02-13T22:16:32.293Z,55.96
2018-02-13T22:19:04.816Z,55.80
2018-02-13T22:21:37.305Z,56.03
2018-02-13T22:24:09.823Z,56.20
2018-02-13T22:26:43.447Z,56.10
2018-02-13T22:29:16.683Z,56.07
2018-02-13T22:31:49.277Z,55.96
2018-02-13T22:34:21.807Z,55.59
2018-02-13T22:36:54.311Z,55.95
2018-02-13T22:39:26.827Z,56.11
2018-02-13T22:41:59.332Z,56.22
2018-02-13T22:44:32.527Z,56.36
2018-02-13T22:47:06.496Z,56.21
2018-02-13T22:49:39.876Z,55.89
2018-02-13T22:52:12.377Z,55.73
2018-02-13T22:54:44.904Z,55.90
2018-02-13T22:57:17.392Z,56.05
2018-02-13T22:59:49.917Z,56.25
2018-02-13T23:02:22.420Z,56.25
2018-02-13T23:04:54.995Z,56.40
2018-02-13T23:07:27.479Z,56.53
2018-02-13T23:09:59.997Z,56.52
2018-02-13T23:12:32.493Z,56.32
2018-02-13T23:15:05.000Z,55.99
2018-02-13T23:17:37.500Z,56.19
2018-02-13T23:20:10.032Z,55.80
2018-02-13T23:22:42.547Z,55.71
2018-02-13T23:25:15.074Z,56.07
2018-02-13T23:27:47.594Z,56.12
2018-02-13T23:30:20.108Z,56.26
2018-02-13T23:32:52.632Z,55.92
2018-02-13T23:35:25.156Z,55.86
2018-02-13T23:37:57.688Z,55.79
2018-02-13T23:40:30.206Z,55.98
2018-02-13T23:43:02.714Z,55.96
2018-02-13T23:45:35.229Z,55.85
2018-02-13T23:48:07.732Z,55.96
2018-02-13T23:50:40.235Z,55.69
2018-02-13T23:53:12.752Z,55.82
2018-02-13T23:55:45.276Z,56.05
2018-02-13T23:58:17.798Z,55.97
